createdAt,value
2017-03-04T00:00:03.168Z,5
2017-03-04T00:05:03.157Z,2
2017-03-04T00:10:03.104Z,2
2017-03-04T00:15:02.882Z,3
2017-03-04T00:20:02.840Z,3
2017-03-04T00:25:02.753Z,2
2017-03-04T00:30:02.723Z,3
2017-03-04T00:35:03.656Z,2
2017-03-04T00:40:03.605Z,0
2017-03-04T00:45:03.317Z,1
2017-03-04T00:50:03.211Z,1
2017-03-04T00:55:03.343Z,0
2017-03-04T01:00:03.176Z,0
2017-03-04T01:05:02.943Z,0
2017-03-04T01:10:02.883Z,1
2017-03-04T01:15:02.784Z,0
2017-03-04T01:20:03.635Z,2
2017-03-04T01:25:02.763Z,0
2017-03-04T01:30:03.625Z,2
2017-03-04T01:35:03.385Z,0
2017-03-04T01:40:03.206Z,3
2017-03-04T01:45:03.214Z,3
2017-03-04T01:50:02.863Z,3
2017-03-04T01:55:03.025Z,2
2017-03-04T02:00:02.889Z,2
2017-03-04T02:05:02.923Z,2
2017-03-04T02:10:02.763Z,1
2017-03-04T02:15:02.591Z,2
2017-03-04T02:20:03.478Z,1
2017-03-04T02:25:03.519Z,0
2017-03-04T02:30:03.535Z,3
2017-03-04T02:35:03.594Z,0
2017-03-04T02:40:02.740Z,0
2017-03-04T02:45:03.485Z,0
2017-03-04T02:50:03.413Z,1
2017-03-04T02:55:03.382Z,1
2017-03-04T03:00:03.107Z,0
2017-03-04T03:05:02.952Z,4
2017-03-04T03:10:02.968Z,2
2017-03-04T03:15:02.853Z,2
2017-03-04T03:20:02.801Z,0
2017-03-04T03:25:02.770Z,0
2017-03-04T03:30:02.608Z,0
2017-03-04T03:35:02.610Z,1
2017-03-04T03:40:03.502Z,0
2017-03-04T03:45:03.406Z,0
2017-03-04T03:50:03.339Z,0
2017-03-04T03:55:03.195Z,0
2017-03-04T04:00:02.834Z,0
2017-03-04T04:05:02.760Z,0
2017-03-04T04:10:02.672Z,1
2017-03-04T04:15:03.512Z,1
2017-03-04T04:20:03.363Z,0
2017-03-04T04:25:03.429Z,2
2017-03-04T04:30:03.444Z,3
2017-03-04T04:35:03.284Z,3
2017-03-04T04:40:03.390Z,2
2017-03-04T04:45:03.099Z,2
2017-03-04T04:50:03.166Z,1
2017-03-04T04:55:03.029Z,0
2017-03-04T05:00:03.250Z,2
2017-03-04T05:05:03.037Z,2
2017-03-04T05:10:02.795Z,3
2017-03-04T05:15:02.880Z,1
2017-03-04T05:20:02.717Z,2
2017-03-04T05:25:03.027Z,1
2017-03-04T05:30:03.259Z,1
2017-03-04T05:35:03.313Z,1
2017-03-04T05:40:03.209Z,2
2017-03-04T05:45:02.955Z,2
2017-03-04T05:50:02.963Z,2
2017-03-04T05:55:02.813Z,0
2017-03-04T06:00:03.576Z,3
2017-03-04T06:05:03.454Z,0
2017-03-04T06:10:03.334Z,1
2017-03-04T06:15:03.415Z,2
2017-03-04T06:20:03.599Z,2
2017-03-04T06:25:03.301Z,2
2017-03-04T06:30:02.985Z,3
2017-03-04T06:35:02.853Z,2
2017-03-04T06:40:02.715Z,3
2017-03-04T06:45:03.377Z,2
2017-03-04T06:50:03.281Z,3
2017-03-04T06:55:03.022Z,2
2017-03-04T07:00:02.842Z,2
2017-03-04T07:05:02.908Z,1
2017-03-04T07:10:02.695Z,1
2017-03-04T07:15:03.545Z,1
2017-03-04T07:20:02.679Z,2
2017-03-04T07:25:02.651Z,2
2017-03-04T07:30:03.556Z,1
2017-03-04T07:35:03.315Z,1
2017-03-04T07:40:03.337Z,0
2017-03-04T07:45:03.451Z,0
2017-03-04T07:50:03.598Z,0
2017-03-04T07:55:02.577Z,1
2017-03-04T08:00:03.480Z,2
2017-03-04T08:05:03.433Z,2
2017-03-04T08:10:03.336Z,3
2017-03-04T08:15:03.456Z,5
2017-03-04T08:20:03.309Z,2
2017-03-04T08:25:03.170Z,0
2017-03-04T08:30:03.352Z,1
2017-03-04T08:35:03.258Z,0
2017-03-04T08:40:03.172Z,0
2017-03-04T08:45:02.951Z,0
2017-03-04T08:50:02.838Z,0
2017-03-04T08:55:03.544Z,0
2017-03-04T09:00:03.481Z,0
2017-03-04T09:05:03.295Z,1
2017-03-04T09:10:03.176Z,0
2017-03-04T09:15:03.117Z,2
2017-03-04T09:20:03.005Z,2
2017-03-04T09:25:03.051Z,3
2017-03-04T09:30:02.781Z,3
2017-03-04T09:35:03.481Z,2
2017-03-04T09:40:03.309Z,2
2017-03-04T09:45:03.288Z,3
2017-03-04T09:50:03.387Z,1
2017-03-04T09:55:03.487Z,2
2017-03-04T10:00:03.308Z,0
2017-03-04T10:05:03.046Z,0
2017-03-04T10:10:02.989Z,0
2017-03-04T10:15:02.838Z,0
2017-03-04T10:20:02.804Z,0
2017-03-04T10:25:02.724Z,0
2017-03-04T10:30:02.815Z,0
2017-03-04T10:35:03.574Z,2
2017-03-04T10:40:03.565Z,0
2017-03-04T10:45:03.376Z,2
2017-03-04T10:50:03.277Z,1
2017-03-04T10:55:03.449Z,0
2017-03-04T11:00:02.695Z,1
2017-03-04T11:05:03.425Z,0
2017-03-04T11:10:03.624Z,3
2017-03-04T11:15:03.408Z,1
2017-03-04T11:20:03.303Z,0
2017-03-04T11:25:03.553Z,0
2017-03-04T11:30:02.778Z,2
2017-03-04T11:35:02.833Z,1
2017-03-04T11:40:03.024Z,0
2017-03-04T11:45:03.105Z,0
2017-03-04T11:50:02.964Z,2
2017-03-04T11:55:02.984Z,1
2017-03-04T12:00:03.141Z,0
2017-03-04T12:05:03.181Z,2
2017-03-04T12:10:03.467Z,1
2017-03-04T12:15:03.433Z,0
2017-03-04T12:20:02.881Z,0
2017-03-04T12:25:03.109Z,1
2017-03-04T12:30:02.731Z,1
2017-03-04T12:35:02.934Z,2
2017-03-04T12:40:03.187Z,2
2017-03-04T12:45:03.212Z,0
2017-03-04T12:50:03.337Z,1
2017-03-04T12:55:03.249Z,0
2017-03-04T13:00:03.235Z,2
2017-03-04T13:05:03.381Z,1
2017-03-04T13:10:03.315Z,1
2017-03-04T13:15:03.399Z,2
2017-03-04T13:20:03.534Z,0
2017-03-04T13:25:03.445Z,3
2017-03-04T13:30:03.314Z,1
2017-03-04T13:35:03.397Z,3
2017-03-04T13:40:03.305Z,3
2017-03-04T13:45:03.358Z,2
2017-03-04T13:50:03.188Z,0
2017-03-04T13:55:02.846Z,2
2017-03-04T14:00:02.838Z,0
2017-03-04T14:05:02.859Z,3
2017-03-04T14:10:02.888Z,3
2017-03-04T14:15:02.928Z,2
2017-03-04T14:20:03.082Z,6
2017-03-04T14:25:03.163Z,3
2017-03-04T14:30:02.976Z,2
2017-03-04T14:35:02.839Z,3
2017-03-04T14:40:02.945Z,6
2017-03-04T14:45:02.943Z,2
2017-03-04T14:50:03.023Z,5
2017-03-04T14:55:02.995Z,2
2017-03-04T15:00:03.105Z,3
2017-03-04T15:05:03.014Z,2
2017-03-04T15:10:02.943Z,0
2017-03-04T15:15:02.906Z,2
2017-03-04T15:20:02.705Z,3
2017-03-04T15:25:02.779Z,5
2017-03-04T15:30:02.902Z,7
2017-03-04T15:35:02.661Z,3
2017-03-04T15:40:03.618Z,3
2017-03-04T15:45:03.507Z,3
2017-03-04T15:50:03.335Z,5
2017-03-04T15:55:03.373Z,3
2017-03-04T16:00:03.449Z,2
2017-03-04T16:05:03.312Z,2
2017-03-04T16:10:03.093Z,0
2017-03-04T16:15:02.932Z,0
2017-03-04T16:20:02.641Z,2
2017-03-04T16:25:03.475Z,0
2017-03-04T16:30:03.263Z,0
2017-03-04T16:35:03.080Z,0
2017-03-04T16:40:02.926Z,0
2017-03-04T16:45:02.977Z,0
2017-03-04T16:50:02.671Z,0
2017-03-04T16:55:03.519Z,0
2017-03-04T17:00:03.538Z,0
2017-03-04T17:05:03.309Z,0
2017-03-04T17:10:03.120Z,0
2017-03-04T17:15:02.932Z,0
2017-03-04T17:20:02.803Z,0
2017-03-04T17:25:02.685Z,0
2017-03-04T17:30:02.789Z,0
2017-03-04T17:35:03.652Z,0
2017-03-04T17:40:03.672Z,0
2017-03-04T17:45:03.505Z,0
2017-03-04T17:50:03.290Z,0
2017-03-04T17:55:02.924Z,0
2017-03-04T18:00:02.969Z,0
2017-03-04T18:05:02.971Z,0
2017-03-04T18:10:02.871Z,0
2017-03-04T18:15:02.945Z,0
2017-03-04T18:20:02.780Z,0
2017-03-04T18:25:03.568Z,0
2017-03-04T18:30:03.400Z,0
2017-03-04T18:35:03.218Z,0
2017-03-04T18:40:03.371Z,0
2017-03-04T18:45:03.299Z,0
2017-03-04T18:50:02.923Z,0
2017-03-04T18:55:02.618Z,0
2017-03-04T19:00:03.510Z,0
2017-03-04T19:05:03.450Z,11
2017-03-04T19:10:03.396Z,9
2017-03-04T19:15:03.280Z,14
2017-03-04T19:20:02.961Z,8
2017-03-04T19:25:02.870Z,20
2017-03-04T19:30:02.694Z,7
2017-03-04T19:35:03.509Z,3
2017-03-04T19:40:03.469Z,6
2017-03-04T19:45:03.451Z,4
2017-03-04T19:50:03.256Z,8
2017-03-04T19:55:03.072Z,5
2017-03-04T20:00:03.123Z,8
2017-03-04T20:05:03.358Z,5
2017-03-04T20:10:03.496Z,5
2017-03-04T20:15:03.345Z,7
2017-03-04T20:20:03.381Z,3
2017-03-04T20:25:03.464Z,3
2017-03-04T20:30:03.496Z,3
2017-03-04T20:35:03.400Z,3
2017-03-04T20:40:03.528Z,3
2017-03-04T20:45:03.632Z,3
2017-03-04T20:50:02.708Z,2
2017-03-04T20:55:03.430Z,20
2017-03-04T21:00:03.356Z,16
2017-03-04T21:05:03.222Z,9
2017-03-04T21:10:03.438Z,12
2017-03-04T21:15:03.327Z,3
2017-03-04T21:20:03.103Z,3
2017-03-04T21:25:02.800Z,2
2017-03-04T21:30:02.726Z,0
2017-03-04T21:35:02.783Z,2
2017-03-04T21:40:02.710Z,4
2017-03-04T21:45:02.617Z,3
2017-03-04T21:50:03.334Z,19
2017-03-04T21:55:03.281Z,14
2017-03-04T22:00:03.336Z,2
2017-03-04T22:05:03.206Z,3
2017-03-04T22:10:03.159Z,2
2017-03-04T22:15:03.023Z,2
2017-03-04T22:20:02.849Z,3
2017-03-04T22:25:02.844Z,3
2017-03-04T22:30:02.747Z,1
2017-03-04T22:35:02.882Z,1
2017-03-04T22:40:02.778Z,1
2017-03-04T22:45:03.596Z,2
2017-03-04T22:50:03.417Z,4
2017-03-04T22:55:03.150Z,4
2017-03-04T23:00:02.914Z,3
2017-03-04T23:05:02.691Z,2
2017-03-04T23:10:02.801Z,2
2017-03-04T23:15:02.717Z,4
2017-03-04T23:20:03.645Z,6
2017-03-04T23:25:03.597Z,6
2017-03-04T23:30:03.463Z,7
2017-03-04T23:35:03.491Z,5
2017-03-04T23:40:03.363Z,5
2017-03-04T23:45:03.091Z,4
2017-03-04T23:50:02.929Z,8
2017-03-04T23:55:02.855Z,4
